Newbury, Massachusetts
Current Conditions -  °F | °C
As of 10:53 AM on Thursday 23 Oct 2014 (Local Time) from KBVY Reporting Station
Light Rain Light Rain  
Wind Chill: 52°   Ceiling: 700
Heat Index: 52°   Visibility: 3mi
Dew Point: 50°   Wind: 20mph
Humidity: 93%   Direction: 20°NNE
Pressure: 29.62"   Gusts: 37mph
Location:  42.79°N, 70.83°W
Report Text: KBVY 231453Z 02017G32KT 350V050 3SM -RA BR OVC007 11/10 A2962 RMK AO2 PK WND 02032/1445 SLP027 P0008 60094 T01110100 55024
Loading
Personal Weather Stations






























Interactive Weather Map
Tropical Storm Tracking
New forecast layout! Learn more

10-Day Weather Forecast

Advertisements
Track Severe Weather on mobile